createdAt,value
2022-12-23T00:00:30.597Z,6.69
2022-12-23T00:02:58.251Z,6.69
2022-12-23T00:05:25.956Z,6.69
2022-12-23T00:07:53.495Z,6.67
2022-12-23T00:10:21.389Z,6.64
2022-12-23T00:13:06.396Z,6.66
2022-12-23T00:15:35.923Z,6.67
2022-12-23T00:18:03.478Z,6.64
2022-12-23T00:20:31.175Z,6.64
2022-12-23T00:23:08.024Z,6.64
2022-12-23T00:25:44.711Z,6.61
2022-12-23T00:28:14.621Z,6.59
2022-12-23T00:30:48.201Z,6.58
2022-12-23T00:33:16.851Z,6.56
2022-12-23T00:35:45.338Z,6.56
2022-12-23T00:38:13.058Z,6.57
2022-12-23T00:40:58.158Z,6.51
2022-12-23T00:43:25.886Z,6.49
2022-12-23T00:45:55.184Z,6.48
2022-12-23T00:48:40.223Z,6.49
2022-12-23T00:51:07.852Z,6.48
2022-12-23T00:53:35.475Z,6.48
2022-12-23T00:56:03.176Z,6.45
2022-12-23T00:58:31.957Z,6.46
2022-12-23T01:01:18.419Z,6.46
2022-12-23T01:04:03.710Z,6.45
2022-12-23T01:06:31.336Z,6.44
2022-12-23T01:08:58.915Z,6.45
2022-12-23T01:11:26.505Z,6.45
2022-12-23T01:13:54.051Z,6.45
2022-12-23T01:16:23.016Z,6.47
2022-12-23T01:18:51.068Z,6.47
2022-12-23T01:21:19.091Z,6.48
2022-12-23T01:23:46.655Z,6.46
2022-12-23T01:26:14.363Z,6.47
2022-12-23T01:28:41.924Z,6.46
2022-12-23T01:31:11.953Z,6.46
2022-12-23T01:33:40.909Z,6.45
2022-12-23T01:36:10.141Z,6.45
2022-12-23T01:38:37.756Z,6.46
2022-12-23T01:41:05.605Z,6.43
2022-12-23T01:43:47.511Z,6.43
2022-12-23T01:46:15.503Z,6.39
2022-12-23T01:48:49.553Z,6.39
2022-12-23T01:51:20.554Z,6.36
2022-12-23T01:53:51.306Z,6.33
2022-12-23T01:56:24.552Z,6.33
2022-12-23T01:58:56.054Z,6.34
2022-12-23T02:01:41.595Z,6.34
2022-12-23T02:04:15.666Z,6.37
2022-12-23T02:07:02.272Z,6.39
2022-12-23T02:09:32.124Z,6.39
2022-12-23T02:12:30.251Z,6.41
2022-12-23T02:15:27.183Z,6.41
2022-12-23T02:18:11.799Z,6.41
2022-12-23T02:21:13.084Z,6.40
2022-12-23T02:24:19.640Z,6.38
2022-12-23T02:27:16.164Z,6.37
2022-12-23T02:30:26.317Z,6.34
2022-12-23T02:33:30.820Z,6.33
2022-12-23T02:36:15.834Z,6.34
2022-12-23T02:38:49.203Z,6.33
2022-12-23T02:41:23.972Z,6.33
2022-12-23T02:43:58.085Z,6.34
2022-12-23T02:46:33.077Z,6.32
2022-12-23T02:49:07.530Z,6.31
2022-12-23T02:51:38.218Z,6.31
2022-12-23T02:54:10.060Z,6.29
2022-12-23T02:56:40.858Z,6.28
2022-12-23T02:59:13.565Z,6.27
2022-12-23T03:01:43.019Z,6.25
2022-12-23T03:04:12.235Z,6.24
2022-12-23T03:06:42.813Z,6.22
2022-12-23T03:09:16.740Z,6.19
2022-12-23T03:11:55.227Z,6.19
2022-12-23T03:14:44.656Z,6.19
2022-12-23T03:17:26.624Z,6.15
2022-12-23T03:20:04.462Z,6.14
2022-12-23T03:22:37.004Z,6.11
2022-12-23T03:25:11.707Z,6.12
2022-12-23T03:27:44.058Z,6.10
2022-12-23T03:30:14.823Z,6.08
2022-12-23T03:32:50.367Z,6.05
2022-12-23T03:35:25.289Z,6.02
2022-12-23T03:37:55.589Z,5.97
2022-12-23T03:40:26.044Z,5.95
2022-12-23T03:42:58.586Z,5.92
2022-12-23T03:45:39.840Z,5.89
2022-12-23T03:48:13.351Z,5.86
2022-12-23T03:50:44.186Z,5.85
2022-12-23T03:53:15.565Z,5.80
2022-12-23T03:55:49.426Z,5.77
2022-12-23T03:58:27.111Z,5.72
2022-12-23T04:01:00.797Z,5.67
2022-12-23T04:03:36.640Z,5.63
2022-12-23T04:06:09.692Z,5.57
2022-12-23T04:08:39.812Z,5.54
2022-12-23T04:11:08.011Z,5.54
2022-12-23T04:13:35.884Z,5.54
2022-12-23T04:16:04.645Z,5.56
2022-12-23T04:18:32.417Z,5.56
2022-12-23T04:21:00.278Z,5.55
2022-12-23T04:23:29.220Z,5.56
2022-12-23T04:25:57.391Z,5.56
2022-12-23T04:28:25.126Z,5.57
2022-12-23T04:30:52.745Z,5.56
2022-12-23T04:33:20.349Z,5.55
2022-12-23T04:35:48.109Z,5.56
2022-12-23T04:38:15.916Z,5.56
2022-12-23T04:40:48.182Z,5.55
2022-12-23T04:43:16.309Z,5.53
2022-12-23T04:45:44.198Z,5.54
2022-12-23T04:48:11.775Z,5.53
2022-12-23T04:50:40.521Z,5.54
2022-12-23T04:53:08.155Z,5.55
2022-12-23T04:55:35.933Z,5.56
2022-12-23T04:58:05.238Z,5.57
2022-12-23T05:00:39.159Z,5.59
2022-12-23T05:03:07.629Z,5.61
2022-12-23T05:05:35.371Z,5.61
2022-12-23T05:08:05.265Z,5.60
2022-12-23T05:10:32.985Z,5.62
2022-12-23T05:13:00.775Z,5.61
2022-12-23T05:15:29.959Z,5.59
2022-12-23T05:17:57.585Z,5.57
2022-12-23T05:20:25.167Z,5.55
2022-12-23T05:22:52.742Z,5.54
2022-12-23T05:25:20.352Z,5.53
2022-12-23T05:27:47.890Z,5.50
2022-12-23T05:30:15.651Z,5.44
2022-12-23T05:32:45.295Z,5.43
2022-12-23T05:35:12.990Z,5.39
2022-12-23T05:37:40.578Z,5.39
2022-12-23T05:40:09.571Z,5.37
2022-12-23T05:42:37.460Z,5.33
2022-12-23T05:45:05.565Z,5.32
2022-12-23T05:47:33.450Z,5.32
2022-12-23T05:50:03.167Z,5.30
2022-12-23T05:52:30.958Z,5.27
2022-12-23T05:54:58.562Z,5.24
2022-12-23T05:57:26.575Z,5.17
2022-12-23T05:59:54.471Z,5.12
2022-12-23T06:02:22.550Z,5.07
2022-12-23T06:04:50.426Z,5.03
2022-12-23T06:07:19.448Z,5.00
2022-12-23T06:09:46.966Z,4.99
2022-12-23T06:12:14.561Z,5.00
2022-12-23T06:14:42.121Z,5.06
2022-12-23T06:17:09.724Z,5.11
2022-12-23T06:19:37.966Z,5.16
2022-12-23T06:22:05.596Z,5.19
2022-12-23T06:24:34.580Z,5.24
2022-12-23T06:27:02.271Z,5.27
2022-12-23T06:29:29.893Z,5.30
2022-12-23T06:31:57.672Z,5.32
2022-12-23T06:34:25.297Z,5.35
2022-12-23T06:36:53.169Z,5.40
2022-12-23T06:39:21.179Z,5.44
2022-12-23T06:41:50.099Z,5.47
2022-12-23T06:44:18.048Z,5.50
2022-12-23T06:46:45.658Z,5.49
2022-12-23T06:49:13.953Z,5.51
2022-12-23T06:51:42.218Z,5.51
2022-12-23T06:54:11.321Z,5.55
2022-12-23T06:56:38.954Z,5.55
2022-12-23T06:59:08.010Z,5.54
2022-12-23T07:01:35.716Z,5.50
2022-12-23T07:04:03.647Z,5.47
2022-12-23T07:06:31.272Z,5.41
2022-12-23T07:08:59.541Z,5.30
2022-12-23T07:11:27.140Z,5.32
2022-12-23T07:13:54.744Z,5.36
2022-12-23T07:16:23.830Z,5.41
2022-12-23T07:18:51.416Z,5.45
2022-12-23T07:21:28.266Z,5.44
2022-12-23T07:23:56.446Z,5.45
2022-12-23T07:26:24.532Z,5.44
2022-12-23T07:28:52.425Z,5.44
2022-12-23T07:31:20.168Z,5.43
2022-12-23T07:33:49.153Z,5.42
2022-12-23T07:36:16.903Z,5.42
2022-12-23T07:38:44.936Z,5.39
2022-12-23T07:41:12.629Z,5.31
2022-12-23T07:43:40.209Z,5.28
2022-12-23T07:46:08.669Z,5.21
2022-12-23T07:48:36.633Z,5.18
2022-12-23T07:51:06.577Z,5.20
2022-12-23T07:53:34.615Z,5.20
2022-12-23T07:56:02.233Z,5.17
2022-12-23T07:58:29.813Z,5.12
2022-12-23T08:01:02.201Z,5.02
2022-12-23T08:03:30.548Z,4.96
2022-12-23T08:06:03.071Z,4.89
2022-12-23T08:08:32.693Z,4.81
2022-12-23T08:11:01.747Z,4.76
2022-12-23T08:13:29.545Z,4.71
2022-12-23T08:15:57.958Z,4.69
2022-12-23T08:18:26.689Z,4.66
2022-12-23T08:20:55.561Z,4.65
2022-12-23T08:23:25.010Z,4.66
2022-12-23T08:26:01.762Z,4.65
2022-12-23T08:28:29.994Z,4.69
2022-12-23T08:31:03.732Z,4.74
2022-12-23T08:33:31.665Z,4.78
2022-12-23T08:35:59.274Z,4.81
2022-12-23T08:38:26.916Z,4.85
2022-12-23T08:40:54.645Z,4.86
2022-12-23T08:43:24.122Z,4.86
2022-12-23T08:45:52.035Z,4.87
2022-12-23T08:48:19.739Z,4.86
2022-12-23T08:50:48.647Z,4.84
2022-12-23T08:53:16.398Z,4.83
2022-12-23T08:55:45.856Z,4.80
2022-12-23T08:58:15.049Z,4.80
2022-12-23T09:00:44.144Z,4.83
2022-12-23T09:03:11.855Z,4.85
2022-12-23T09:05:43.198Z,4.90
2022-12-23T09:08:10.996Z,4.97
2022-12-23T09:10:42.963Z,5.11
2022-12-23T09:13:17.926Z,5.22
2022-12-23T09:15:51.858Z,5.37
2022-12-23T09:18:19.490Z,5.46
2022-12-23T09:20:48.156Z,5.52
2022-12-23T09:23:15.709Z,5.56
2022-12-23T09:25:43.275Z,5.64
2022-12-23T09:28:11.066Z,5.67
2022-12-23T09:30:38.645Z,5.73
2022-12-23T09:33:07.597Z,5.77
2022-12-23T09:35:35.364Z,5.84
2022-12-23T09:38:03.000Z,5.84
2022-12-23T09:40:33.337Z,5.86
2022-12-23T09:43:13.919Z,5.88
2022-12-23T09:45:56.768Z,5.81
2022-12-23T09:48:31.768Z,5.67
2022-12-23T09:50:59.960Z,5.63
2022-12-23T09:53:41.269Z,5.65
2022-12-23T09:56:17.226Z,5.67
2022-12-23T09:58:51.606Z,5.70
2022-12-23T10:01:26.197Z,5.71
2022-12-23T10:04:21.605Z,5.70
2022-12-23T10:06:56.337Z,5.80
2022-12-23T10:09:28.610Z,5.85
2022-12-23T10:11:57.061Z,5.84
2022-12-23T10:14:29.849Z,5.90
2022-12-23T10:17:01.394Z,5.95
2022-12-23T10:19:41.516Z,5.97
2022-12-23T10:22:16.678Z,5.96
2022-12-23T10:24:47.118Z,6.05
2022-12-23T10:27:24.308Z,6.09
2022-12-23T10:29:52.092Z,6.17
2022-12-23T10:32:31.294Z,6.22
2022-12-23T10:35:10.821Z,6.29
2022-12-23T10:37:42.616Z,6.35
2022-12-23T10:40:18.272Z,6.39
2022-12-23T10:42:58.464Z,6.43
2022-12-23T10:45:43.431Z,6.52
2022-12-23T10:48:25.425Z,6.59
2022-12-23T10:51:01.027Z,6.62
2022-12-23T10:53:36.995Z,6.68
2022-12-23T10:56:06.090Z,6.70
2022-12-23T10:58:37.683Z,6.78
2022-12-23T11:01:16.145Z,6.81
2022-12-23T11:04:02.674Z,6.84
2022-12-23T11:06:37.488Z,6.83
2022-12-23T11:09:06.235Z,6.83
2022-12-23T11:11:57.567Z,6.93
2022-12-23T11:14:34.224Z,6.96
2022-12-23T11:17:03.006Z,6.99
2022-12-23T11:19:30.787Z,7.00
2022-12-23T11:22:01.846Z,7.05
2022-12-23T11:24:35.350Z,7.03
2022-12-23T11:27:08.631Z,6.87
2022-12-23T11:29:38.006Z,6.92
2022-12-23T11:32:17.779Z,6.90
2022-12-23T11:34:47.660Z,6.86
2022-12-23T11:37:30.918Z,6.78
2022-12-23T11:39:58.548Z,6.80
2022-12-23T11:42:31.151Z,6.72
2022-12-23T11:45:00.893Z,6.78
2022-12-23T11:47:34.057Z,6.88
2022-12-23T11:50:03.716Z,6.94
2022-12-23T11:52:34.327Z,7.02
2022-12-23T11:55:03.963Z,7.08
2022-12-23T11:57:38.991Z,7.05
2022-12-23T12:00:17.706Z,7.09
2022-12-23T12:02:48.296Z,7.15
2022-12-23T12:05:22.616Z,7.19
2022-12-23T12:07:53.055Z,7.10
2022-12-23T12:10:26.128Z,7.09
2022-12-23T12:12:57.946Z,7.04
2022-12-23T12:15:34.963Z,7.07
2022-12-23T12:18:07.233Z,7.08
2022-12-23T12:20:38.296Z,7.05
2022-12-23T12:23:13.823Z,7.04
2022-12-23T12:25:45.778Z,6.99
2022-12-23T12:28:19.834Z,6.97
2022-12-23T12:30:53.145Z,6.93
2022-12-23T12:33:24.999Z,6.78
2022-12-23T12:36:04.940Z,6.61
2022-12-23T12:38:37.151Z,6.67
2022-12-23T12:41:15.155Z,6.64
2022-12-23T12:43:48.288Z,6.62
2022-12-23T12:46:27.816Z,6.66
2022-12-23T12:49:00.718Z,6.68
2022-12-23T12:51:34.687Z,6.56
2022-12-23T12:54:11.635Z,6.40
2022-12-23T12:56:44.798Z,6.26
2022-12-23T12:59:17.780Z,6.18
2022-12-23T13:01:57.779Z,6.09
2022-12-23T13:04:47.856Z,6.00
2022-12-23T13:07:23.392Z,6.02
2022-12-23T13:10:00.250Z,5.99
2022-12-23T13:12:43.148Z,5.90
2022-12-23T13:15:19.613Z,5.86
2022-12-23T13:17:52.986Z,5.85
2022-12-23T13:20:35.028Z,5.85
2022-12-23T13:23:41.860Z,5.79
2022-12-23T13:26:06.505Z,5.71
2022-12-23T13:28:44.984Z,5.66
2022-12-23T13:31:19.283Z,5.64
2022-12-23T13:33:55.151Z,5.59
2022-12-23T13:36:38.256Z,5.48
2022-12-23T13:39:24.274Z,5.36
2022-12-23T13:42:03.007Z,5.30
2022-12-23T13:44:34.828Z,5.20
2022-12-23T13:47:12.553Z,5.10
2022-12-23T13:49:53.892Z,5.05
2022-12-23T13:52:35.095Z,4.99
2022-12-23T13:55:13.192Z,4.89
2022-12-23T13:57:53.118Z,4.83
2022-12-23T14:00:27.748Z,4.80
2022-12-23T14:03:17.852Z,4.75
2022-12-23T14:05:47.666Z,4.69
2022-12-23T14:08:31.310Z,4.64
2022-12-23T14:11:03.009Z,4.59
2022-12-23T14:13:40.122Z,4.53
2022-12-23T14:16:33.620Z,4.49
2022-12-23T14:19:34.415Z,4.43
2022-12-23T14:22:14.156Z,4.36
2022-12-23T14:25:06.991Z,4.28
2022-12-23T14:27:46.542Z,4.18
2022-12-23T14:30:18.371Z,4.09
2022-12-23T14:32:49.672Z,3.99
2022-12-23T14:35:23.142Z,3.90
2022-12-23T14:38:27.292Z,3.81
2022-12-23T14:41:01.121Z,3.69
2022-12-23T14:43:34.708Z,3.60
2022-12-23T14:46:06.022Z,3.50
2022-12-23T14:49:09.629Z,3.41
2022-12-23T14:51:41.190Z,3.34
2022-12-23T14:54:15.107Z,3.29
2022-12-23T14:56:58.327Z,3.20
2022-12-23T14:59:35.902Z,3.10
2022-12-23T15:02:17.821Z,2.99
2022-12-23T15:04:48.858Z,2.89
2022-12-23T15:07:25.467Z,2.81
2022-12-23T15:10:00.727Z,2.73
2022-12-23T15:12:33.310Z,2.64
2022-12-23T15:15:04.474Z,2.52
2022-12-23T15:17:35.963Z,2.43
2022-12-23T15:20:12.974Z,2.36
2022-12-23T15:22:42.430Z,2.27
2022-12-23T15:25:20.854Z,2.19
2022-12-23T15:27:48.939Z,2.11
2022-12-23T15:30:18.163Z,2.04
2022-12-23T15:32:49.456Z,1.97
2022-12-23T15:35:23.563Z,1.89
2022-12-23T15:37:51.862Z,1.84
2022-12-23T15:40:27.920Z,1.78
2022-12-23T15:42:56.353Z,1.77
2022-12-23T15:45:33.071Z,1.76
2022-12-23T15:48:02.848Z,1.75
2022-12-23T15:50:31.335Z,1.72
2022-12-23T15:53:06.416Z,1.68
2022-12-23T15:55:37.430Z,1.65
2022-12-23T15:58:05.677Z,1.64
2022-12-23T16:00:39.929Z,1.62
2022-12-23T16:03:25.968Z,1.60
2022-12-23T16:05:54.073Z,1.57
2022-12-23T16:08:30.187Z,1.52
2022-12-23T16:11:05.501Z,1.43
2022-12-23T16:13:33.907Z,1.38
2022-12-23T16:16:30.324Z,1.30
2022-12-23T16:18:59.318Z,1.24
2022-12-23T16:21:31.561Z,1.14
2022-12-23T16:24:01.075Z,1.14
2022-12-23T16:26:28.966Z,1.09
2022-12-23T16:29:00.216Z,1.05
2022-12-23T16:31:28.448Z,1.01
2022-12-23T16:33:59.504Z,0.97
2022-12-23T16:36:35.705Z,0.94
2022-12-23T16:39:15.911Z,0.89
2022-12-23T16:41:43.594Z,0.86
2022-12-23T16:44:11.504Z,0.83
2022-12-23T16:46:43.490Z,0.80
2022-12-23T16:49:16.423Z,0.75
2022-12-23T16:51:44.449Z,0.73
2022-12-23T16:54:15.535Z,0.72
2022-12-23T16:56:44.054Z,0.68
2022-12-23T16:59:11.670Z,0.64
2022-12-23T17:01:42.159Z,0.60
2022-12-23T17:04:09.986Z,0.60
2022-12-23T17:06:40.698Z,0.60
2022-12-23T17:09:11.258Z,0.60
2022-12-23T17:11:42.485Z,0.61
2022-12-23T17:14:16.641Z,0.61
2022-12-23T17:16:45.131Z,0.64
2022-12-23T17:19:12.853Z,0.65
2022-12-23T17:21:44.015Z,0.64
2022-12-23T17:24:15.049Z,0.66
2022-12-23T17:26:42.733Z,0.66
2022-12-23T17:29:12.631Z,0.68
2022-12-23T17:31:40.839Z,0.70
2022-12-23T17:34:11.640Z,0.72
2022-12-23T17:36:43.058Z,0.74
2022-12-23T17:39:16.929Z,0.77
2022-12-23T17:41:44.668Z,0.77
2022-12-23T17:44:16.053Z,0.74
2022-12-23T17:46:43.752Z,0.70
2022-12-23T17:49:11.381Z,0.65
2022-12-23T17:51:40.498Z,0.60
2022-12-23T17:54:08.231Z,0.57
2022-12-23T17:56:37.854Z,0.49
2022-12-23T17:59:05.478Z,0.44
2022-12-23T18:01:33.244Z,0.41
2022-12-23T18:04:01.287Z,0.38
2022-12-23T18:06:30.581Z,0.36
2022-12-23T18:08:58.409Z,0.34
2022-12-23T18:11:33.508Z,0.36
2022-12-23T18:14:03.665Z,0.33
2022-12-23T18:16:31.946Z,0.33
2022-12-23T18:18:59.593Z,0.33
2022-12-23T18:21:28.954Z,0.34
2022-12-23T18:23:59.613Z,0.33
2022-12-23T18:26:27.939Z,0.32
2022-12-23T18:28:55.603Z,0.31
2022-12-23T18:31:27.291Z,0.31
2022-12-23T18:33:55.097Z,0.32
2022-12-23T18:36:24.958Z,0.31
2022-12-23T18:38:53.546Z,0.30
2022-12-23T18:41:21.979Z,0.32
2022-12-23T18:43:49.704Z,0.32
2022-12-23T18:46:17.950Z,0.30
2022-12-23T18:48:47.185Z,0.30
2022-12-23T18:51:15.320Z,0.31
2022-12-23T18:53:43.583Z,0.32
2022-12-23T18:56:13.762Z,0.33
2022-12-23T18:58:41.367Z,0.34
2022-12-23T19:01:12.321Z,0.36
2022-12-23T19:03:40.042Z,0.38
2022-12-23T19:06:10.915Z,0.39
2022-12-23T19:08:39.071Z,0.43
2022-12-23T19:11:11.688Z,0.46
2022-12-23T19:13:39.436Z,0.48
2022-12-23T19:16:07.304Z,0.51
2022-12-23T19:18:34.926Z,0.53
2022-12-23T19:21:05.261Z,0.57
2022-12-23T19:23:34.231Z,0.59
2022-12-23T19:26:02.420Z,0.62
2022-12-23T19:28:30.048Z,0.65
2022-12-23T19:30:57.716Z,0.70
2022-12-23T19:33:25.916Z,0.74
2022-12-23T19:35:53.547Z,0.77
2022-12-23T19:38:21.162Z,0.81
2022-12-23T19:40:58.891Z,0.84
2022-12-23T19:43:26.564Z,0.86
2022-12-23T19:45:58.240Z,0.87
2022-12-23T19:48:25.904Z,0.89
2022-12-23T19:50:58.087Z,0.90
2022-12-23T19:53:25.845Z,0.88
2022-12-23T19:55:59.509Z,0.87
2022-12-23T19:58:27.468Z,0.87
2022-12-23T20:01:06.600Z,0.86
2022-12-23T20:03:34.277Z,0.85
2022-12-23T20:06:02.347Z,0.84
2022-12-23T20:08:29.940Z,0.83
2022-12-23T20:11:09.590Z,0.81
2022-12-23T20:13:37.556Z,0.78
2022-12-23T20:16:06.663Z,0.76
2022-12-23T20:18:34.459Z,0.72
2022-12-23T20:21:02.495Z,0.70
2022-12-23T20:23:31.819Z,0.70
2022-12-23T20:25:59.586Z,0.69
2022-12-23T20:28:29.777Z,0.66
2022-12-23T20:31:02.046Z,0.65
2022-12-23T20:33:29.635Z,0.64
2022-12-23T20:35:57.271Z,0.61
2022-12-23T20:38:24.925Z,0.59
2022-12-23T20:40:52.538Z,0.60
2022-12-23T20:43:20.546Z,0.59
2022-12-23T20:45:51.927Z,0.58
2022-12-23T20:48:21.575Z,0.55
2022-12-23T20:50:49.453Z,0.56
2022-12-23T20:53:17.591Z,0.53
2022-12-23T20:55:45.190Z,0.50
2022-12-23T20:58:26.764Z,0.50
2022-12-23T21:00:55.750Z,0.47
2022-12-23T21:03:23.443Z,0.47
2022-12-23T21:05:51.161Z,0.47
2022-12-23T21:08:18.780Z,0.48
2022-12-23T21:10:53.413Z,0.50
2022-12-23T21:13:21.441Z,0.50
2022-12-23T21:15:49.130Z,0.50
2022-12-23T21:18:18.271Z,0.50
2022-12-23T21:20:45.874Z,0.50
2022-12-23T21:23:13.531Z,0.50
2022-12-23T21:25:41.108Z,0.52
2022-12-23T21:28:08.673Z,0.52
2022-12-23T21:30:36.275Z,0.55
2022-12-23T21:33:03.831Z,0.57
2022-12-23T21:35:32.791Z,0.57
2022-12-23T21:38:00.414Z,0.60
2022-12-23T21:40:28.067Z,0.62
2022-12-23T21:42:55.682Z,0.64
2022-12-23T21:45:23.268Z,0.67
2022-12-23T21:47:50.969Z,0.71
2022-12-23T21:50:18.653Z,0.73
2022-12-23T21:52:47.596Z,0.75
2022-12-23T21:55:16.084Z,0.76
2022-12-23T21:57:43.867Z,0.79
2022-12-23T22:00:12.407Z,0.82
2022-12-23T22:02:40.124Z,0.83
2022-12-23T22:05:08.879Z,0.86
2022-12-23T22:07:36.464Z,0.85
2022-12-23T22:10:06.274Z,0.85
2022-12-23T22:12:33.877Z,0.86
2022-12-23T22:15:05.062Z,0.89
2022-12-23T22:17:37.504Z,0.91
2022-12-23T22:20:05.827Z,0.94
2022-12-23T22:22:33.381Z,0.97
2022-12-23T22:25:00.968Z,1.00
2022-12-23T22:27:29.844Z,1.02
2022-12-23T22:29:57.435Z,1.08
2022-12-23T22:32:24.973Z,1.13
2022-12-23T22:34:52.507Z,1.15
2022-12-23T22:37:20.082Z,1.14
2022-12-23T22:39:47.713Z,1.18
2022-12-23T22:42:15.318Z,1.19
2022-12-23T22:44:44.225Z,1.20
2022-12-23T22:47:11.836Z,1.17
2022-12-23T22:49:39.453Z,1.06
2022-12-23T22:52:07.023Z,1.05
2022-12-23T22:54:34.595Z,1.03
2022-12-23T22:57:02.128Z,1.02
2022-12-23T22:59:29.664Z,1.02
2022-12-23T23:01:58.687Z,1.01
2022-12-23T23:04:26.402Z,1.01
2022-12-23T23:06:54.011Z,1.00
2022-12-23T23:09:23.042Z,1.01
2022-12-23T23:11:51.181Z,1.00
2022-12-23T23:14:19.567Z,1.01
2022-12-23T23:16:47.395Z,1.02
2022-12-23T23:19:20.110Z,1.01
2022-12-23T23:21:48.796Z,1.00
2022-12-23T23:24:16.420Z,0.99
2022-12-23T23:26:43.973Z,1.00
2022-12-23T23:29:11.543Z,0.99
2022-12-23T23:31:42.425Z,1.01
2022-12-23T23:34:11.115Z,0.99
2022-12-23T23:36:40.428Z,0.99
2022-12-23T23:39:08.249Z,1.01
2022-12-23T23:41:35.965Z,1.03
2022-12-23T23:44:03.586Z,1.02
2022-12-23T23:46:31.720Z,1.03
2022-12-23T23:48:59.468Z,1.02
2022-12-23T23:51:27.226Z,1.00
2022-12-23T23:53:56.193Z,1.01
2022-12-23T23:56:25.817Z,1.00
2022-12-23T23:58:54.774Z,1.00
